sensor_id;sensor_type;location;lat;lon;timestamp;pressure;altitude;pressure_sealevel;temperature;humidity
32197;BME280;18697;42.770;23.400;2022-12-13T00:01:44;95128.47;;;1.80;80.56
32197;BME280;18697;42.770;23.400;2022-12-13T00:04:10;95118.72;;;1.79;80.42
32197;BME280;18697;42.770;23.400;2022-12-13T00:06:35;95124.03;;;1.67;79.87
32197;BME280;18697;42.770;23.400;2022-12-13T00:09:03;95130.22;;;1.71;80.10
32197;BME280;18697;42.770;23.400;2022-12-13T00:11:28;95125.56;;;1.68;80.39
32197;BME280;18697;42.770;23.400;2022-12-13T00:13:54;95123.63;;;1.68;80.29
32197;BME280;18697;42.770;23.400;2022-12-13T00:16:22;95127.13;;;1.69;80.30
32197;BME280;18697;42.770;23.400;2022-12-13T00:18:56;95132.59;;;1.69;79.49
32197;BME280;18697;42.770;23.400;2022-12-13T00:21:24;95129.63;;;1.59;79.49
32197;BME280;18697;42.770;23.400;2022-12-13T00:23:50;95131.66;;;1.55;79.91
32197;BME280;18697;42.770;23.400;2022-12-13T00:26:19;95128.28;;;1.48;79.92
32197;BME280;18697;42.770;23.400;2022-12-13T00:28:45;95139.16;;;1.51;80.65
32197;BME280;18697;42.770;23.400;2022-12-13T00:31:14;95135.88;;;1.60;80.38
32197;BME280;18697;42.770;23.400;2022-12-13T00:33:39;95127.00;;;1.52;79.53
32197;BME280;18697;42.770;23.400;2022-12-13T00:36:06;95125.88;;;1.50;80.19
32197;BME280;18697;42.770;23.400;2022-12-13T00:38:33;95138.78;;;1.49;80.31
32197;BME280;18697;42.770;23.400;2022-12-13T00:40:58;95145.81;;;1.50;80.36
32197;BME280;18697;42.770;23.400;2022-12-13T00:43:24;95147.38;;;1.51;79.96
32197;BME280;18697;42.770;23.400;2022-12-13T00:45:49;95143.50;;;1.49;80.24
32197;BME280;18697;42.770;23.400;2022-12-13T00:48:15;95143.69;;;1.38;80.33
32197;BME280;18697;42.770;23.400;2022-12-13T00:50:40;95143.94;;;1.47;81.13
32197;BME280;18697;42.770;23.400;2022-12-13T00:53:05;95147.88;;;1.46;80.78
32197;BME280;18697;42.770;23.400;2022-12-13T00:55:31;95145.91;;;1.47;81.11
32197;BME280;18697;42.770;23.400;2022-12-13T00:57:56;95146.94;;;1.53;81.40
32197;BME280;18697;42.770;23.400;2022-12-13T01:00:22;95144.22;;;1.53;81.30
32197;BME280;18697;42.770;23.400;2022-12-13T01:02:51;95144.50;;;1.58;81.01
32197;BME280;18697;42.770;23.400;2022-12-13T01:05:17;95150.75;;;1.59;81.34
32197;BME280;18697;42.770;23.400;2022-12-13T01:07:42;95137.06;;;1.59;80.91
32197;BME280;18697;42.770;23.400;2022-12-13T01:10:10;95138.25;;;1.58;80.69
32197;BME280;18697;42.770;23.400;2022-12-13T01:12:36;95145.22;;;1.62;81.08
32197;BME280;18697;42.770;23.400;2022-12-13T01:15:02;95139.50;;;1.77;80.69
32197;BME280;18697;42.770;23.400;2022-12-13T01:17:27;95139.13;;;1.75;79.91
32197;BME280;18697;42.770;23.400;2022-12-13T01:19:54;95144.13;;;1.80;79.52
32197;BME280;18697;42.770;23.400;2022-12-13T01:22:20;95151.09;;;1.84;78.86
32197;BME280;18697;42.770;23.400;2022-12-13T01:24:45;95155.09;;;1.80;78.81
32197;BME280;18697;42.770;23.400;2022-12-13T01:27:11;95151.22;;;1.77;79.28
32197;BME280;18697;42.770;23.400;2022-12-13T01:29:36;95147.47;;;1.68;78.79
32197;BME280;18697;42.770;23.400;2022-12-13T01:32:01;95146.41;;;1.61;78.79
32197;BME280;18697;42.770;23.400;2022-12-13T01:34:27;95140.59;;;1.59;78.88
32197;BME280;18697;42.770;23.400;2022-12-13T01:36:54;95148.72;;;1.63;79.05
32197;BME280;18697;42.770;23.400;2022-12-13T01:39:19;95151.47;;;1.63;78.42
32197;BME280;18697;42.770;23.400;2022-12-13T01:41:48;95150.75;;;1.59;77.70
32197;BME280;18697;42.770;23.400;2022-12-13T01:44:55;95152.00;;;1.54;77.91
32197;BME280;18697;42.770;23.400;2022-12-13T01:50:03;95154.19;;;1.43;77.51
32197;BME280;18697;42.770;23.400;2022-12-13T01:52:32;95153.03;;;1.41;78.05
32197;BME280;18697;42.770;23.400;2022-12-13T01:55:00;95163.44;;;1.49;78.16
32197;BME280;18697;42.770;23.400;2022-12-13T01:57:26;95161.56;;;1.46;77.99
32197;BME280;18697;42.770;23.400;2022-12-13T01:59:53;95160.78;;;1.46;77.81
32197;BME280;18697;42.770;23.400;2022-12-13T02:02:19;95162.44;;;1.40;77.77
32197;BME280;18697;42.770;23.400;2022-12-13T02:04:54;95164.41;;;1.39;78.22
32197;BME280;18697;42.770;23.400;2022-12-13T02:07:24;95162.50;;;1.36;77.95
32197;BME280;18697;42.770;23.400;2022-12-13T02:09:52;95165.91;;;1.44;77.90
32197;BME280;18697;42.770;23.400;2022-12-13T02:12:19;95160.84;;;1.42;78.23
32197;BME280;18697;42.770;23.400;2022-12-13T02:14:45;95166.88;;;1.53;77.76
32197;BME280;18697;42.770;23.400;2022-12-13T02:20:27;95172.72;;;1.55;77.34
32197;BME280;18697;42.770;23.400;2022-12-13T02:34:26;95168.50;;;1.27;75.50
32197;BME280;18697;42.770;23.400;2022-12-13T02:39:37;95166.91;;;1.03;76.46
32197;BME280;18697;42.770;23.400;2022-12-13T02:42:08;95172.06;;;0.97;77.12
32197;BME280;18697;42.770;23.400;2022-12-13T02:44:49;95177.72;;;0.83;77.66
32197;BME280;18697;42.770;23.400;2022-12-13T02:47:20;95177.00;;;0.79;78.34
32197;BME280;18697;42.770;23.400;2022-12-13T02:49:48;95181.41;;;0.73;78.50
32197;BME280;18697;42.770;23.400;2022-12-13T02:52:17;95174.03;;;0.70;78.73
32197;BME280;18697;42.770;23.400;2022-12-13T02:54:46;95166.28;;;0.65;78.43
32197;BME280;18697;42.770;23.400;2022-12-13T02:59:56;95168.88;;;0.45;79.01
32197;BME280;18697;42.770;23.400;2022-12-13T03:02:33;95177.50;;;0.44;79.64
32197;BME280;18697;42.770;23.400;2022-12-13T03:05:18;95181.41;;;0.43;79.83
32197;BME280;18697;42.770;23.400;2022-12-13T03:08:29;95193.22;;;0.32;79.94
32197;BME280;18697;42.770;23.400;2022-12-13T03:11:11;95188.66;;;0.22;80.13
32197;BME280;18697;42.770;23.400;2022-12-13T03:13:59;95188.34;;;0.17;80.33
32197;BME280;18697;42.770;23.400;2022-12-13T03:16:40;95179.81;;;0.11;80.63
32197;BME280;18697;42.770;23.400;2022-12-13T03:19:09;95178.69;;;0.05;80.73
32197;BME280;18697;42.770;23.400;2022-12-13T03:21:44;95185.75;;;0.03;80.68
32197;BME280;18697;42.770;23.400;2022-12-13T03:24:10;95180.34;;;-0.01;80.43
32197;BME280;18697;42.770;23.400;2022-12-13T03:26:37;95189.25;;;0.03;80.66
32197;BME280;18697;42.770;23.400;2022-12-13T03:29:05;95193.16;;;0.02;80.42
32197;BME280;18697;42.770;23.400;2022-12-13T03:31:30;95198.69;;;-0.02;80.31
32197;BME280;18697;42.770;23.400;2022-12-13T03:33:56;95197.56;;;-0.04;80.29
32197;BME280;18697;42.770;23.400;2022-12-13T03:36:21;95204.63;;;-0.10;80.39
32197;BME280;18697;42.770;23.400;2022-12-13T03:38:48;95197.97;;;-0.06;80.04
32197;BME280;18697;42.770;23.400;2022-12-13T03:41:17;95194.81;;;-0.04;79.80
32197;BME280;18697;42.770;23.400;2022-12-13T03:43:43;95187.84;;;-0.09;79.31
32197;BME280;18697;42.770;23.400;2022-12-13T03:46:09;95183.91;;;-0.04;79.24
32197;BME280;18697;42.770;23.400;2022-12-13T03:48:35;95189.72;;;-0.02;78.70
32197;BME280;18697;42.770;23.400;2022-12-13T03:51:01;95193.28;;;-0.05;78.64
32197;BME280;18697;42.770;23.400;2022-12-13T03:53:27;95195.25;;;-0.09;78.40
32197;BME280;18697;42.770;23.400;2022-12-13T03:55:52;95200.72;;;-0.09;78.64
32197;BME280;18697;42.770;23.400;2022-12-13T03:58:18;95207.81;;;-0.19;78.23
32197;BME280;18697;42.770;23.400;2022-12-13T04:00:44;95214.91;;;-0.25;78.82
32197;BME280;18697;42.770;23.400;2022-12-13T04:03:10;95219.25;;;-0.31;78.93
32197;BME280;18697;42.770;23.400;2022-12-13T04:05:35;95215.78;;;-0.35;79.22
32197;BME280;18697;42.770;23.400;2022-12-13T04:08:01;95223.63;;;-0.41;79.22
32197;BME280;18697;42.770;23.400;2022-12-13T04:10:27;95222.06;;;-0.42;79.25
32197;BME280;18697;42.770;23.400;2022-12-13T04:12:53;95226.00;;;-0.46;79.52
32197;BME280;18697;42.770;23.400;2022-12-13T04:15:37;95218.28;;;-0.55;79.11
32197;BME280;18697;42.770;23.400;2022-12-13T04:18:03;95232.25;;;-0.49;79.12
32197;BME280;18697;42.770;23.400;2022-12-13T04:20:29;95235.41;;;-0.54;79.09
32197;BME280;18697;42.770;23.400;2022-12-13T04:22:54;95238.91;;;-0.50;78.88
32197;BME280;18697;42.770;23.400;2022-12-13T04:25:20;95243.59;;;-0.54;78.88
32197;BME280;18697;42.770;23.400;2022-12-13T04:27:45;95252.59;;;-0.61;78.93
32197;BME280;18697;42.770;23.400;2022-12-13T04:30:11;95258.75;;;-0.46;79.32
32197;BME280;18697;42.770;23.400;2022-12-13T04:32:36;95266.06;;;-0.36;79.21
32197;BME280;18697;42.770;23.400;2022-12-13T04:35:02;95255.88;;;-0.28;78.89
32197;BME280;18697;42.770;23.400;2022-12-13T04:37:29;95262.41;;;-0.19;78.09
32197;BME280;18697;42.770;23.400;2022-12-13T04:39:54;95259.72;;;-0.22;76.41
32197;BME280;18697;42.770;23.400;2022-12-13T04:42:20;95271.78;;;-0.20;76.65
32197;BME280;18697;42.770;23.400;2022-12-13T04:44:45;95276.09;;;-0.22;76.51
32197;BME280;18697;42.770;23.400;2022-12-13T04:47:10;95262.50;;;-0.29;76.00
32197;BME280;18697;42.770;23.400;2022-12-13T04:49:36;95272.63;;;-0.26;77.07
32197;BME280;18697;42.770;23.400;2022-12-13T04:52:01;95274.56;;;-0.27;76.69
32197;BME280;18697;42.770;23.400;2022-12-13T04:54:27;95278.44;;;-0.24;76.69
32197;BME280;18697;42.770;23.400;2022-12-13T04:56:52;95283.97;;;-0.31;75.83
32197;BME280;18697;42.770;23.400;2022-12-13T04:59:18;95282.84;;;-0.38;75.82
32197;BME280;18697;42.770;23.400;2022-12-13T05:01:43;95284.78;;;-0.38;75.79
32197;BME280;18697;42.770;23.400;2022-12-13T05:04:09;95290.63;;;-0.36;76.28
32197;BME280;18697;42.770;23.400;2022-12-13T05:06:34;95292.66;;;-0.47;76.12
32197;BME280;18697;42.770;23.400;2022-12-13T05:09:00;95290.31;;;-0.49;76.45
32197;BME280;18697;42.770;23.400;2022-12-13T05:11:25;95296.53;;;-0.45;76.62
32197;BME280;18697;42.770;23.400;2022-12-13T05:13:51;95291.50;;;-0.50;76.18
32197;BME280;18697;42.770;23.400;2022-12-13T05:16:16;95292.28;;;-0.49;76.06
32197;BME280;18697;42.770;23.400;2022-12-13T05:18:42;95296.16;;;-0.47;76.43
32197;BME280;18697;42.770;23.400;2022-12-13T05:21:09;95300.00;;;-0.41;77.30
32197;BME280;18697;42.770;23.400;2022-12-13T05:23:35;95303.50;;;-0.37;77.27
32197;BME280;18697;42.770;23.400;2022-12-13T05:26:01;95304.59;;;-0.27;76.37
32197;BME280;18697;42.770;23.400;2022-12-13T05:28:28;95299.84;;;-0.16;76.32
32197;BME280;18697;42.770;23.400;2022-12-13T05:30:56;95301.66;;;-0.02;77.27
32197;BME280;18697;42.770;23.400;2022-12-13T05:33:23;95297.97;;;0.15;77.08
32197;BME280;18697;42.770;23.400;2022-12-13T05:35:49;95304.06;;;0.33;75.95
32197;BME280;18697;42.770;23.400;2022-12-13T05:38:14;95307.75;;;0.54;74.55
32197;BME280;18697;42.770;23.400;2022-12-13T05:40:40;95310.84;;;0.56;73.19
32197;BME280;18697;42.770;23.400;2022-12-13T05:43:05;95314.78;;;0.55;71.90
32197;BME280;18697;42.770;23.400;2022-12-13T05:45:31;95327.75;;;0.44;72.09
32197;BME280;18697;42.770;23.400;2022-12-13T05:47:57;95323.44;;;0.46;72.67
32197;BME280;18697;42.770;23.400;2022-12-13T05:50:23;95316.13;;;0.36;72.54
32197;BME280;18697;42.770;23.400;2022-12-13T05:52:49;95321.19;;;0.38;73.11
32197;BME280;18697;42.770;23.400;2022-12-13T05:55:14;95322.78;;;0.35;73.43
32197;BME280;18697;42.770;23.400;2022-12-13T05:57:39;95322.44;;;0.29;73.97
32197;BME280;18697;42.770;23.400;2022-12-13T06:00:07;95334.59;;;0.21;73.79
32197;BME280;18697;42.770;23.400;2022-12-13T06:02:37;95330.84;;;0.05;73.98
32197;BME280;18697;42.770;23.400;2022-12-13T06:05:03;95331.94;;;0.14;74.25
32197;BME280;18697;42.770;23.400;2022-12-13T06:07:29;95340.03;;;0.25;75.46
32197;BME280;18697;42.770;23.400;2022-12-13T06:09:55;95349.78;;;0.26;74.79
32197;BME280;18697;42.770;23.400;2022-12-13T06:12:20;95355.00;;;0.10;74.37
32197;BME280;18697;42.770;23.400;2022-12-13T06:14:46;95349.09;;;0.15;74.21
32197;BME280;18697;42.770;23.400;2022-12-13T06:17:11;95351.13;;;0.04;74.32
32197;BME280;18697;42.770;23.400;2022-12-13T06:19:36;95354.34;;;-0.05;74.40
32197;BME280;18697;42.770;23.400;2022-12-13T06:22:02;95348.03;;;0.02;75.89
32197;BME280;18697;42.770;23.400;2022-12-13T06:24:27;95350.13;;;-0.13;75.12
32197;BME280;18697;42.770;23.400;2022-12-13T06:26:53;95349.53;;;0.10;76.55
32197;BME280;18697;42.770;23.400;2022-12-13T06:29:20;95349.50;;;0.13;75.26
32197;BME280;18697;42.770;23.400;2022-12-13T06:31:46;95342.78;;;0.21;74.54
32197;BME280;18697;42.770;23.400;2022-12-13T06:34:12;95343.97;;;0.20;74.36
32197;BME280;18697;42.770;23.400;2022-12-13T06:36:37;95343.03;;;0.38;75.57
32197;BME280;18697;42.770;23.400;2022-12-13T06:39:04;95345.25;;;0.50;75.82
32197;BME280;18697;42.770;23.400;2022-12-13T06:41:30;95353.41;;;0.57;75.53
32197;BME280;18697;42.770;23.400;2022-12-13T06:43:56;95350.66;;;0.57;74.11
32197;BME280;18697;42.770;23.400;2022-12-13T06:46:21;95364.13;;;0.37;72.82
32197;BME280;18697;42.770;23.400;2022-12-13T06:48:46;95358.28;;;0.35;74.10
32197;BME280;18697;42.770;23.400;2022-12-13T06:51:13;95358.72;;;0.30;73.91
32197;BME280;18697;42.770;23.400;2022-12-13T06:53:40;95364.13;;;0.37;74.34
32197;BME280;18697;42.770;23.400;2022-12-13T06:56:11;95370.41;;;0.30;73.19
32197;BME280;18697;42.770;23.400;2022-12-13T06:58:37;95368.50;;;0.27;73.84
32197;BME280;18697;42.770;23.400;2022-12-13T07:01:10;95368.81;;;0.37;74.05
32197;BME280;18697;42.770;23.400;2022-12-13T07:03:36;95367.59;;;0.41;74.19
32197;BME280;18697;42.770;23.400;2022-12-13T07:06:09;95374.19;;;0.47;73.70
32197;BME280;18697;42.770;23.400;2022-12-13T07:08:35;95366.31;;;0.53;73.47
32197;BME280;18697;42.770;23.400;2022-12-13T07:11:02;95366.44;;;0.76;74.14
32197;BME280;18697;42.770;23.400;2022-12-13T07:13:27;95374.06;;;0.95;72.20
32197;BME280;18697;42.770;23.400;2022-12-13T07:15:53;95373.22;;;1.02;71.32
32197;BME280;18697;42.770;23.400;2022-12-13T07:18:18;95368.91;;;1.01;70.36
32197;BME280;18697;42.770;23.400;2022-12-13T07:20:44;95374.25;;;1.12;70.24
32197;BME280;18697;42.770;23.400;2022-12-13T07:23:09;95378.47;;;1.20;70.18
32197;BME280;18697;42.770;23.400;2022-12-13T07:25:35;95383.84;;;1.27;70.48
32197;BME280;18697;42.770;23.400;2022-12-13T07:28:03;95389.19;;;1.38;69.59
32197;BME280;18697;42.770;23.400;2022-12-13T07:30:31;95386.78;;;1.43;69.61
32197;BME280;18697;42.770;23.400;2022-12-13T07:32:57;95385.47;;;1.51;69.72
32197;BME280;18697;42.770;23.400;2022-12-13T07:35:22;95394.19;;;1.12;68.85
32197;BME280;18697;42.770;23.400;2022-12-13T07:37:48;95395.50;;;1.01;69.30
32197;BME280;18697;42.770;23.400;2022-12-13T07:40:13;95401.03;;;0.93;70.62
32197;BME280;18697;42.770;23.400;2022-12-13T07:42:39;95397.81;;;1.02;70.81
32197;BME280;18697;42.770;23.400;2022-12-13T07:45:04;95381.94;;;1.24;71.02
32197;BME280;18697;42.770;23.400;2022-12-13T07:47:30;95388.59;;;1.23;71.18
32197;BME280;18697;42.770;23.400;2022-12-13T07:49:56;95389.56;;;1.40;69.94
32197;BME280;18697;42.770;23.400;2022-12-13T07:52:22;95391.44;;;1.46;69.19
32197;BME280;18697;42.770;23.400;2022-12-13T07:54:47;95386.13;;;1.62;69.85
32197;BME280;18697;42.770;23.400;2022-12-13T07:57:12;95387.81;;;1.53;68.29
32197;BME280;18697;42.770;23.400;2022-12-13T07:59:38;95391.97;;;1.64;68.12
32197;BME280;18697;42.770;23.400;2022-12-13T08:02:05;95398.53;;;1.71;68.95
32197;BME280;18697;42.770;23.400;2022-12-13T08:04:30;95396.59;;;1.98;69.37
32197;BME280;18697;42.770;23.400;2022-12-13T08:06:56;95399.38;;;2.21;68.56
32197;BME280;18697;42.770;23.400;2022-12-13T08:09:21;95401.38;;;2.41;68.62
32197;BME280;18697;42.770;23.400;2022-12-13T08:11:47;95396.91;;;2.50;67.32
32197;BME280;18697;42.770;23.400;2022-12-13T08:14:13;95391.84;;;2.72;67.37
32197;BME280;18697;42.770;23.400;2022-12-13T08:16:38;95393.88;;;2.91;65.89
32197;BME280;18697;42.770;23.400;2022-12-13T08:19:04;95393.22;;;3.04;64.90
32197;BME280;18697;42.770;23.400;2022-12-13T08:21:39;95396.19;;;3.33;64.88
32197;BME280;18697;42.770;23.400;2022-12-13T08:24:05;95394.94;;;3.57;64.25
32197;BME280;18697;42.770;23.400;2022-12-13T08:26:31;95403.03;;;3.80;63.50
32197;BME280;18697;42.770;23.400;2022-12-13T08:28:56;95413.50;;;4.05;62.98
32197;BME280;18697;42.770;23.400;2022-12-13T08:31:21;95403.47;;;4.15;61.87
32197;BME280;18697;42.770;23.400;2022-12-13T08:33:47;95412.84;;;4.34;60.71
32197;BME280;18697;42.770;23.400;2022-12-13T08:36:15;95422.47;;;4.42;60.51
32197;BME280;18697;42.770;23.400;2022-12-13T08:38:45;95417.22;;;4.47;59.89
32197;BME280;18697;42.770;23.400;2022-12-13T08:41:11;95411.19;;;4.52;59.18
32197;BME280;18697;42.770;23.400;2022-12-13T08:43:36;95394.00;;;4.81;59.81
32197;BME280;18697;42.770;23.400;2022-12-13T08:46:02;95388.88;;;5.12;58.90
32197;BME280;18697;42.770;23.400;2022-12-13T08:48:29;95388.78;;;5.28;58.10
32197;BME280;18697;42.770;23.400;2022-12-13T08:51:01;95385.06;;;5.64;57.97
32197;BME280;18697;42.770;23.400;2022-12-13T08:53:27;95376.88;;;5.89;56.44
32197;BME280;18697;42.770;23.400;2022-12-13T08:55:53;95379.28;;;6.25;56.09
32197;BME280;18697;42.770;23.400;2022-12-13T08:58:18;95383.69;;;6.35;55.30
32197;BME280;18697;42.770;23.400;2022-12-13T09:00:44;95379.94;;;6.54;54.34
32197;BME280;18697;42.770;23.400;2022-12-13T09:03:10;95379.94;;;6.89;53.54
32197;BME280;18697;42.770;23.400;2022-12-13T09:05:38;95379.88;;;7.14;52.29
32197;BME280;18697;42.770;23.400;2022-12-13T09:08:04;95374.94;;;7.31;52.36
32197;BME280;18697;42.770;23.400;2022-12-13T09:10:29;95374.34;;;7.58;51.37
32197;BME280;18697;42.770;23.400;2022-12-13T09:12:55;95376.22;;;7.61;51.75
32197;BME280;18697;42.770;23.400;2022-12-13T09:15:26;95373.72;;;7.76;50.21
32197;BME280;18697;42.770;23.400;2022-12-13T09:17:52;95379.84;;;8.02;49.49
32197;BME280;18697;42.770;23.400;2022-12-13T09:20:18;95369.16;;;8.22;49.64
32197;BME280;18697;42.770;23.400;2022-12-13T09:22:43;95372.03;;;8.40;49.45
32197;BME280;18697;42.770;23.400;2022-12-13T09:25:09;95357.09;;;8.38;48.55
32197;BME280;18697;42.770;23.400;2022-12-13T09:27:34;95363.94;;;8.24;49.46
32197;BME280;18697;42.770;23.400;2022-12-13T09:30:00;95351.81;;;8.31;47.92
32197;BME280;18697;42.770;23.400;2022-12-13T09:32:26;95353.00;;;8.20;49.35
32197;BME280;18697;42.770;23.400;2022-12-13T09:34:52;95345.03;;;8.22;48.70
32197;BME280;18697;42.770;23.400;2022-12-13T09:37:18;95349.44;;;8.42;48.24
32197;BME280;18697;42.770;23.400;2022-12-13T09:39:43;95351.91;;;8.49;47.97
32197;BME280;18697;42.770;23.400;2022-12-13T09:42:22;95347.81;;;8.63;47.95
32197;BME280;18697;42.770;23.400;2022-12-13T09:44:51;95346.69;;;8.51;46.20
32197;BME280;18697;42.770;23.400;2022-12-13T09:47:35;95342.03;;;8.39;47.92
32197;BME280;18697;42.770;23.400;2022-12-13T09:50:12;95342.31;;;8.32;47.30
32197;BME280;18697;42.770;23.400;2022-12-13T09:52:38;95338.34;;;8.33;48.37
32197;BME280;18697;42.770;23.400;2022-12-13T09:57:48;95334.91;;;8.69;47.98
32197;BME280;18697;42.770;23.400;2022-12-13T10:00:19;95334.16;;;8.77;46.37
32197;BME280;18697;42.770;23.400;2022-12-13T10:02:50;95340.00;;;8.88;46.80
32197;BME280;18697;42.770;23.400;2022-12-13T10:07:57;95331.09;;;9.12;47.43
32197;BME280;18697;42.770;23.400;2022-12-13T10:10:23;95330.47;;;9.17;46.88
32197;BME280;18697;42.770;23.400;2022-12-13T10:12:55;95332.00;;;9.27;45.58
32197;BME280;18697;42.770;23.400;2022-12-13T10:15:23;95331.69;;;9.34;45.46
32197;BME280;18697;42.770;23.400;2022-12-13T10:17:49;95324.63;;;9.15;45.70
32197;BME280;18697;42.770;23.400;2022-12-13T10:20:19;95307.66;;;9.40;45.30
32197;BME280;18697;42.770;23.400;2022-12-13T10:22:46;95308.88;;;9.58;45.60
32197;BME280;18697;42.770;23.400;2022-12-13T10:25:11;95301.81;;;9.38;44.64
32197;BME280;18697;42.770;23.400;2022-12-13T10:27:38;95295.53;;;8.92;46.74
32197;BME280;18697;42.770;23.400;2022-12-13T10:32:56;95289.66;;;9.17;45.39
32197;BME280;18697;42.770;23.400;2022-12-13T10:35:23;95282.88;;;9.37;46.04
32197;BME280;18697;42.770;23.400;2022-12-13T10:37:50;95287.03;;;9.41;45.77
32197;BME280;18697;42.770;23.400;2022-12-13T10:43:07;95274.09;;;9.38;45.79
32197;BME280;18697;42.770;23.400;2022-12-13T10:45:33;95280.56;;;9.35;45.31
32197;BME280;18697;42.770;23.400;2022-12-13T10:47:59;95275.78;;;9.45;45.38
32197;BME280;18697;42.770;23.400;2022-12-13T10:50:27;95276.69;;;9.60;45.46
32197;BME280;18697;42.770;23.400;2022-12-13T10:52:55;95272.22;;;9.53;44.98
32197;BME280;18697;42.770;23.400;2022-12-13T10:57:53;95265.47;;;9.87;45.00
32197;BME280;18697;42.770;23.400;2022-12-13T11:00:30;95263.13;;;9.95;44.22
32197;BME280;18697;42.770;23.400;2022-12-13T11:02:57;95244.28;;;10.08;43.62
32197;BME280;18697;42.770;23.400;2022-12-13T11:05:29;95253.00;;;10.25;43.38
32197;BME280;18697;42.770;23.400;2022-12-13T11:08:10;95252.59;;;10.41;43.82
32197;BME280;18697;42.770;23.400;2022-12-13T11:10:36;95255.66;;;10.43;42.71
32197;BME280;18697;42.770;23.400;2022-12-13T11:13:04;95256.97;;;10.57;44.11
32197;BME280;18697;42.770;23.400;2022-12-13T11:15:32;95257.44;;;10.32;42.13
32197;BME280;18697;42.770;23.400;2022-12-13T11:18:05;95240.66;;;10.26;43.47
32197;BME280;18697;42.770;23.400;2022-12-13T11:20:36;95242.22;;;10.27;41.68
32197;BME280;18697;42.770;23.400;2022-12-13T11:23:06;95245.28;;;10.29;44.43
32197;BME280;18697;42.770;23.400;2022-12-13T11:25:40;95240.56;;;10.11;42.86
32197;BME280;18697;42.770;23.400;2022-12-13T11:36:07;95243.00;;;10.66;44.05
32197;BME280;18697;42.770;23.400;2022-12-13T11:41:52;95231.03;;;10.99;43.42
32197;BME280;18697;42.770;23.400;2022-12-13T11:44:28;95234.22;;;11.06;43.29
32197;BME280;18697;42.770;23.400;2022-12-13T11:46:58;95233.34;;;11.15;43.92
32197;BME280;18697;42.770;23.400;2022-12-13T11:49:33;95231.63;;;11.17;43.70
32197;BME280;18697;42.770;23.400;2022-12-13T11:54:53;95233.47;;;11.35;43.12
32197;BME280;18697;42.770;23.400;2022-12-13T12:00:19;95214.97;;;11.47;43.45
32197;BME280;18697;42.770;23.400;2022-12-13T12:02:49;95216.41;;;11.57;42.33
32197;BME280;18697;42.770;23.400;2022-12-13T12:05:27;95210.25;;;11.68;41.18
32197;BME280;18697;42.770;23.400;2022-12-13T12:08:05;95198.25;;;11.62;41.42
32197;BME280;18697;42.770;23.400;2022-12-13T12:10:41;95205.47;;;11.24;41.00
32197;BME280;18697;42.770;23.400;2022-12-13T12:13:21;95205.34;;;10.27;45.30
32197;BME280;18697;42.770;23.400;2022-12-13T12:18:30;95217.09;;;10.22;44.07
32197;BME280;18697;42.770;23.400;2022-12-13T12:26:14;95207.97;;;9.04;47.27
32197;BME280;18697;42.770;23.400;2022-12-13T12:34:32;95213.59;;;8.00;48.59
32197;BME280;18697;42.770;23.400;2022-12-13T12:37:33;95228.78;;;7.95;47.10
32197;BME280;18697;42.770;23.400;2022-12-13T12:51:14;95218.31;;;8.48;48.22
32197;BME280;18697;42.770;23.400;2022-12-13T12:59:36;95231.59;;;8.22;48.81
32197;BME280;18697;42.770;23.400;2022-12-13T13:04:42;95239.34;;;8.46;49.44
32197;BME280;18697;42.770;23.400;2022-12-13T13:07:19;95231.38;;;8.84;49.25
32197;BME280;18697;42.770;23.400;2022-12-13T13:09:46;95229.19;;;8.98;48.37
32197;BME280;18697;42.770;23.400;2022-12-13T13:12:12;95232.44;;;9.05;47.30
32197;BME280;18697;42.770;23.400;2022-12-13T13:14:39;95242.13;;;9.01;49.16
32197;BME280;18697;42.770;23.400;2022-12-13T13:19:52;95256.81;;;9.62;47.48
32197;BME280;18697;42.770;23.400;2022-12-13T13:22:27;95266.69;;;9.53;45.78
32197;BME280;18697;42.770;23.400;2022-12-13T13:25:21;95275.34;;;9.37;47.13
32197;BME280;18697;42.770;23.400;2022-12-13T13:27:47;95275.97;;;9.14;47.97
32197;BME280;18697;42.770;23.400;2022-12-13T13:30:24;95280.91;;;8.92;49.06
32197;BME280;18697;42.770;23.400;2022-12-13T13:32:54;95282.00;;;8.76;49.75
32197;BME280;18697;42.770;23.400;2022-12-13T13:37:52;95303.84;;;8.24;51.49
32197;BME280;18697;42.770;23.400;2022-12-13T13:57:05;95281.97;;;6.93;55.04
32197;BME280;18697;42.770;23.400;2022-12-13T14:00:08;95271.56;;;6.76;54.92
32197;BME280;18697;42.770;23.400;2022-12-13T14:05:52;95266.28;;;6.69;54.57
32197;BME280;18697;42.770;23.400;2022-12-13T14:22:52;95240.75;;;6.55;57.34
32197;BME280;18697;42.770;23.400;2022-12-13T14:28:47;95250.00;;;6.27;55.37
32197;BME280;18697;42.770;23.400;2022-12-13T14:31:23;95227.59;;;6.25;56.66
32197;BME280;18697;42.770;23.400;2022-12-13T14:33:54;95226.50;;;6.22;54.10
32197;BME280;18697;42.770;23.400;2022-12-13T14:36:29;95241.75;;;6.02;55.47
32197;BME280;18697;42.770;23.400;2022-12-13T14:39:13;95239.22;;;6.07;55.12
32197;BME280;18697;42.770;23.400;2022-12-13T14:41:50;95229.19;;;6.01;57.70
32197;BME280;18697;42.770;23.400;2022-12-13T14:44:25;95237.34;;;6.04;55.88
32197;BME280;18697;42.770;23.400;2022-12-13T14:47:02;95235.91;;;6.12;54.46
32197;BME280;18697;42.770;23.400;2022-12-13T14:49:32;95233.69;;;6.07;53.83
32197;BME280;18697;42.770;23.400;2022-12-13T14:52:15;95227.13;;;5.92;56.37
32197;BME280;18697;42.770;23.400;2022-12-13T14:54:48;95238.16;;;5.92;55.82
32197;BME280;18697;42.770;23.400;2022-12-13T14:57:17;95242.47;;;5.93;55.55
32197;BME280;18697;42.770;23.400;2022-12-13T14:59:55;95246.00;;;5.93;56.60
32197;BME280;18697;42.770;23.400;2022-12-13T15:02:28;95252.03;;;5.76;57.53
32197;BME280;18697;42.770;23.400;2022-12-13T15:04:56;95250.38;;;5.66;58.89
32197;BME280;18697;42.770;23.400;2022-12-13T15:07:34;95258.06;;;5.45;58.18
32197;BME280;18697;42.770;23.400;2022-12-13T15:12:56;95269.88;;;4.34;59.11
32197;BME280;18697;42.770;23.400;2022-12-13T15:15:30;95281.94;;;4.52;59.59
32197;BME280;18697;42.770;23.400;2022-12-13T15:20:31;95290.50;;;5.00;60.64